sensor_id;sensor_type;location;lat;lon;timestamp;temperature;humidity
20422;DHT22;10370;53.102;18.034;2022-12-04T00:05:03;0.00;99.90
20422;DHT22;10370;53.102;18.034;2022-12-04T00:16:42;0.00;99.90
20422;DHT22;10370;53.102;18.034;2022-12-04T00:22:46;0.10;99.90
20422;DHT22;10370;53.102;18.034;2022-12-04T00:33:30;0.20;99.90
20422;DHT22;10370;53.102;18.034;2022-12-04T00:38:53;0.20;99.90
20422;DHT22;10370;53.102;18.034;2022-12-04T00:58:32;0.30;99.90
20422;DHT22;10370;53.102;18.034;2022-12-04T01:03:58;0.30;99.90
20422;DHT22;10370;53.102;18.034;2022-12-04T01:21:17;0.40;99.90
20422;DHT22;10370;53.102;18.034;2022-12-04T01:27:17;0.40;99.90
20422;DHT22;10370;53.102;18.034;2022-12-04T01:39:05;0.50;99.90
20422;DHT22;10370;53.102;18.034;2022-12-04T01:44:28;0.50;99.90
20422;DHT22;10370;53.102;18.034;2022-12-04T01:49:48;0.60;99.90
20422;DHT22;10370;53.102;18.034;2022-12-04T01:55:09;0.60;99.90
20422;DHT22;10370;53.102;18.034;2022-12-04T02:00:31;0.60;99.90
20422;DHT22;10370;53.102;18.034;2022-12-04T02:05:52;0.60;99.90
20422;DHT22;10370;53.102;18.034;2022-12-04T02:11:39;0.60;99.90
20422;DHT22;10370;53.102;18.034;2022-12-04T02:17:19;0.70;99.90
20422;DHT22;10370;53.102;18.034;2022-12-04T02:34:27;0.70;99.90
20422;DHT22;10370;53.102;18.034;2022-12-04T02:45:14;0.80;99.90
20422;DHT22;10370;53.102;18.034;2022-12-04T02:50:40;0.80;99.90
20422;DHT22;10370;53.102;18.034;2022-12-04T02:56:05;0.80;99.90
20422;DHT22;10370;53.102;18.034;2022-12-04T03:01:32;0.90;99.90
20422;DHT22;10370;53.102;18.034;2022-12-04T03:07:04;0.90;99.90
20422;DHT22;10370;53.102;18.034;2022-12-04T03:12:58;0.90;99.90
20422;DHT22;10370;53.102;18.034;2022-12-04T03:18:52;0.90;99.90
20422;DHT22;10370;53.102;18.034;2022-12-04T03:30:04;0.90;99.90
20422;DHT22;10370;53.102;18.034;2022-12-04T03:35:32;0.90;99.90
20422;DHT22;10370;53.102;18.034;2022-12-04T03:41:01;0.90;99.90
20422;DHT22;10370;53.102;18.034;2022-12-04T03:46:30;0.90;99.90
20422;DHT22;10370;53.102;18.034;2022-12-04T04:03:28;1.00;99.90
20422;DHT22;10370;53.102;18.034;2022-12-04T04:08:54;0.90;99.90
20422;DHT22;10370;53.102;18.034;2022-12-04T04:14:24;1.00;99.90
20422;DHT22;10370;53.102;18.034;2022-12-04T04:20:12;1.00;99.90
20422;DHT22;10370;53.102;18.034;2022-12-04T04:25:58;1.00;99.90
20422;DHT22;10370;53.102;18.034;2022-12-04T04:31:24;1.00;99.90
20422;DHT22;10370;53.102;18.034;2022-12-04T04:37:00;1.00;99.90
20422;DHT22;10370;53.102;18.034;2022-12-04T04:42:50;1.00;99.90
20422;DHT22;10370;53.102;18.034;2022-12-04T04:48:27;1.10;99.90
20422;DHT22;10370;53.102;18.034;2022-12-04T04:53:53;1.10;99.90
20422;DHT22;10370;53.102;18.034;2022-12-04T04:59:15;1.00;99.90
20422;DHT22;10370;53.102;18.034;2022-12-04T05:04:36;1.00;99.90
20422;DHT22;10370;53.102;18.034;2022-12-04T05:09:57;1.00;99.90
20422;DHT22;10370;53.102;18.034;2022-12-04T05:15:20;1.00;99.90
20422;DHT22;10370;53.102;18.034;2022-12-04T05:20:41;1.10;99.90
20422;DHT22;10370;53.102;18.034;2022-12-04T05:26:04;1.00;99.90
20422;DHT22;10370;53.102;18.034;2022-12-04T05:31:25;1.00;99.90
20422;DHT22;10370;53.102;18.034;2022-12-04T05:36:46;1.00;99.90
20422;DHT22;10370;53.102;18.034;2022-12-04T05:42:07;1.00;99.90
20422;DHT22;10370;53.102;18.034;2022-12-04T05:47:28;1.00;99.90
20422;DHT22;10370;53.102;18.034;2022-12-04T05:52:53;1.00;99.90
20422;DHT22;10370;53.102;18.034;2022-12-04T05:58:14;1.00;99.90
20422;DHT22;10370;53.102;18.034;2022-12-04T06:03:35;1.10;99.90
20422;DHT22;10370;53.102;18.034;2022-12-04T06:08:58;1.00;99.90
20422;DHT22;10370;53.102;18.034;2022-12-04T06:14:19;1.00;99.90
20422;DHT22;10370;53.102;18.034;2022-12-04T06:19:40;1.00;99.90
20422;DHT22;10370;53.102;18.034;2022-12-04T06:25:01;1.00;99.90
20422;DHT22;10370;53.102;18.034;2022-12-04T06:30:23;1.10;99.90
20422;DHT22;10370;53.102;18.034;2022-12-04T06:36:06;1.00;99.90
20422;DHT22;10370;53.102;18.034;2022-12-04T06:41:31;1.10;99.90
20422;DHT22;10370;53.102;18.034;2022-12-04T06:52:55;1.10;99.90
20422;DHT22;10370;53.102;18.034;2022-12-04T06:58:32;1.10;99.90
20422;DHT22;10370;53.102;18.034;2022-12-04T07:26:31;1.20;99.90
20422;DHT22;10370;53.102;18.034;2022-12-04T07:31:55;1.20;99.90
20422;DHT22;10370;53.102;18.034;2022-12-04T07:37:20;1.20;99.90
20422;DHT22;10370;53.102;18.034;2022-12-04T07:42:41;1.20;99.90
20422;DHT22;10370;53.102;18.034;2022-12-04T07:48:03;1.20;99.90
20422;DHT22;10370;53.102;18.034;2022-12-04T07:53:30;1.20;99.90
20422;DHT22;10370;53.102;18.034;2022-12-04T07:58:55;1.20;99.90
20422;DHT22;10370;53.102;18.034;2022-12-04T08:04:21;1.20;99.90
20422;DHT22;10370;53.102;18.034;2022-12-04T08:09:42;1.30;99.90
20422;DHT22;10370;53.102;18.034;2022-12-04T08:15:03;1.20;99.90
20422;DHT22;10370;53.102;18.034;2022-12-04T08:20:31;1.30;99.90
20422;DHT22;10370;53.102;18.034;2022-12-04T08:36:52;1.30;99.90
20422;DHT22;10370;53.102;18.034;2022-12-04T08:42:23;1.30;99.90
20422;DHT22;10370;53.102;18.034;2022-12-04T08:53:25;1.40;99.90
20422;DHT22;10370;53.102;18.034;2022-12-04T08:58:50;1.40;99.90
20422;DHT22;10370;53.102;18.034;2022-12-04T09:04:11;1.40;99.90
20422;DHT22;10370;53.102;18.034;2022-12-04T09:09:34;1.40;99.90
20422;DHT22;10370;53.102;18.034;2022-12-04T09:20:15;1.50;99.90
20422;DHT22;10370;53.102;18.034;2022-12-04T09:25:36;1.50;99.90
20422;DHT22;10370;53.102;18.034;2022-12-04T09:31:00;1.50;99.90
20422;DHT22;10370;53.102;18.034;2022-12-04T09:36:21;1.60;99.90
20422;DHT22;10370;53.102;18.034;2022-12-04T09:41:59;1.60;99.90
20422;DHT22;10370;53.102;18.034;2022-12-04T09:47:41;1.60;99.90
20422;DHT22;10370;53.102;18.034;2022-12-04T09:53:19;1.60;99.90
20422;DHT22;10370;53.102;18.034;2022-12-04T09:58:48;1.70;99.90
20422;DHT22;10370;53.102;18.034;2022-12-04T10:04:11;1.60;99.90
20422;DHT22;10370;53.102;18.034;2022-12-04T10:09:49;1.60;99.90
20422;DHT22;10370;53.102;18.034;2022-12-04T10:21:30;1.70;99.90
20422;DHT22;10370;53.102;18.034;2022-12-04T10:27:10;1.70;99.90
20422;DHT22;10370;53.102;18.034;2022-12-04T10:32:45;1.70;99.90
20422;DHT22;10370;53.102;18.034;2022-12-04T10:44:17;1.70;99.90
20422;DHT22;10370;53.102;18.034;2022-12-04T10:49:40;1.70;99.90
20422;DHT22;10370;53.102;18.034;2022-12-04T10:55:02;1.70;99.90
20422;DHT22;10370;53.102;18.034;2022-12-04T11:00:32;1.70;99.90
20422;DHT22;10370;53.102;18.034;2022-12-04T11:06:01;1.70;99.90
20422;DHT22;10370;53.102;18.034;2022-12-04T11:11:29;1.70;99.90
20422;DHT22;10370;53.102;18.034;2022-12-04T11:17:03;1.70;99.90
20422;DHT22;10370;53.102;18.034;2022-12-04T11:22:24;1.70;99.90
20422;DHT22;10370;53.102;18.034;2022-12-04T11:27:54;1.70;99.90
20422;DHT22;10370;53.102;18.034;2022-12-04T11:38:52;1.70;99.90
20422;DHT22;10370;53.102;18.034;2022-12-04T11:44:33;1.80;99.90
20422;DHT22;10370;53.102;18.034;2022-12-04T11:50:05;1.70;99.90
20422;DHT22;10370;53.102;18.034;2022-12-04T12:18:39;1.60;99.90
20422;DHT22;10370;53.102;18.034;2022-12-04T12:36:33;1.60;99.90
20422;DHT22;10370;53.102;18.034;2022-12-04T12:41:28;1.60;99.90
20422;DHT22;10370;53.102;18.034;2022-12-04T12:46:59;1.60;99.90
20422;DHT22;10370;53.102;18.034;2022-12-04T12:58:37;1.70;99.90
20422;DHT22;10370;53.102;18.034;2022-12-04T13:04:13;1.70;99.90
20422;DHT22;10370;53.102;18.034;2022-12-04T13:09:43;1.70;99.90
20422;DHT22;10370;53.102;18.034;2022-12-04T13:15:13;1.70;99.90
20422;DHT22;10370;53.102;18.034;2022-12-04T13:20:48;1.70;99.90
20422;DHT22;10370;53.102;18.034;2022-12-04T13:38:25;1.70;99.90
20422;DHT22;10370;53.102;18.034;2022-12-04T13:43:50;1.70;99.90
20422;DHT22;10370;53.102;18.034;2022-12-04T13:54:38;1.70;99.90
20422;DHT22;10370;53.102;18.034;2022-12-04T14:00:19;1.60;99.90
20422;DHT22;10370;53.102;18.034;2022-12-04T14:05:46;1.60;99.90
20422;DHT22;10370;53.102;18.034;2022-12-04T14:11:21;1.60;99.90
20422;DHT22;10370;53.102;18.034;2022-12-04T14:16:48;1.60;99.90
20422;DHT22;10370;53.102;18.034;2022-12-04T14:22:45;1.50;99.90
20422;DHT22;10370;53.102;18.034;2022-12-04T14:34:30;1.50;99.90
20422;DHT22;10370;53.102;18.034;2022-12-04T14:39:55;1.50;99.90
20422;DHT22;10370;53.102;18.034;2022-12-04T14:50:58;1.50;99.90
20422;DHT22;10370;53.102;18.034;2022-12-04T15:08:50;1.60;99.90
20422;DHT22;10370;53.102;18.034;2022-12-04T15:14:23;1.50;99.90
20422;DHT22;10370;53.102;18.034;2022-12-04T15:19:46;1.50;99.90
20422;DHT22;10370;53.102;18.034;2022-12-04T15:25:24;1.50;99.90
20422;DHT22;10370;53.102;18.034;2022-12-04T15:30:47;1.50;99.90
20422;DHT22;10370;53.102;18.034;2022-12-04T15:37:06;1.50;99.90
20422;DHT22;10370;53.102;18.034;2022-12-04T15:53:18;1.50;99.90
20422;DHT22;10370;53.102;18.034;2022-12-04T15:58:56;1.50;99.90
20422;DHT22;10370;53.102;18.034;2022-12-04T16:04:21;1.50;99.90
20422;DHT22;10370;53.102;18.034;2022-12-04T16:09:51;1.50;99.90
20422;DHT22;10370;53.102;18.034;2022-12-04T16:15:15;1.50;99.90
20422;DHT22;10370;53.102;18.034;2022-12-04T16:20:42;1.50;99.90
20422;DHT22;10370;53.102;18.034;2022-12-04T16:26:18;1.40;99.90
20422;DHT22;10370;53.102;18.034;2022-12-04T16:31:45;1.40;99.90
20422;DHT22;10370;53.102;18.034;2022-12-04T16:37:16;1.40;99.90
20422;DHT22;10370;53.102;18.034;2022-12-04T16:42:39;1.40;99.90
20422;DHT22;10370;53.102;18.034;2022-12-04T16:48:03;1.40;99.90
20422;DHT22;10370;53.102;18.034;2022-12-04T16:53:24;1.40;99.90
20422;DHT22;10370;53.102;18.034;2022-12-04T16:58:46;1.40;99.90
20422;DHT22;10370;53.102;18.034;2022-12-04T17:04:08;1.40;99.90
20422;DHT22;10370;53.102;18.034;2022-12-04T17:09:30;1.50;99.90
20422;DHT22;10370;53.102;18.034;2022-12-04T17:14:51;1.40;99.90
20422;DHT22;10370;53.102;18.034;2022-12-04T17:20:16;1.40;99.90
20422;DHT22;10370;53.102;18.034;2022-12-04T17:25:37;1.40;99.90
20422;DHT22;10370;53.102;18.034;2022-12-04T17:30:58;1.40;99.90
20422;DHT22;10370;53.102;18.034;2022-12-04T17:36:24;1.40;99.90
20422;DHT22;10370;53.102;18.034;2022-12-04T17:41:45;1.40;99.90
20422;DHT22;10370;53.102;18.034;2022-12-04T17:47:06;1.50;99.90
20422;DHT22;10370;53.102;18.034;2022-12-04T17:52:28;1.40;99.90
20422;DHT22;10370;53.102;18.034;2022-12-04T17:57:49;1.40;99.90
20422;DHT22;10370;53.102;18.034;2022-12-04T18:03:13;1.40;99.90
20422;DHT22;10370;53.102;18.034;2022-12-04T18:08:50;1.40;99.90
20422;DHT22;10370;53.102;18.034;2022-12-04T18:14:14;1.40;99.90
20422;DHT22;10370;53.102;18.034;2022-12-04T18:19:46;1.40;99.90
20422;DHT22;10370;53.102;18.034;2022-12-04T18:25:13;1.40;99.90
20422;DHT22;10370;53.102;18.034;2022-12-04T18:30:34;1.40;99.90
20422;DHT22;10370;53.102;18.034;2022-12-04T18:35:56;1.40;99.90
20422;DHT22;10370;53.102;18.034;2022-12-04T18:41:17;1.40;99.90
20422;DHT22;10370;53.102;18.034;2022-12-04T18:46:56;1.40;99.90
20422;DHT22;10370;53.102;18.034;2022-12-04T18:52:20;1.40;99.90
20422;DHT22;10370;53.102;18.034;2022-12-04T18:57:41;1.40;99.90
20422;DHT22;10370;53.102;18.034;2022-12-04T19:03:02;1.40;99.90
20422;DHT22;10370;53.102;18.034;2022-12-04T19:08:26;1.40;99.90
20422;DHT22;10370;53.102;18.034;2022-12-04T19:13:53;1.40;99.90
20422;DHT22;10370;53.102;18.034;2022-12-04T19:19:14;1.40;99.90
20422;DHT22;10370;53.102;18.034;2022-12-04T19:24:39;1.40;99.90
20422;DHT22;10370;53.102;18.034;2022-12-04T19:30:00;1.40;99.90
20422;DHT22;10370;53.102;18.034;2022-12-04T19:35:21;1.40;99.90
20422;DHT22;10370;53.102;18.034;2022-12-04T19:40:42;1.40;99.90
20422;DHT22;10370;53.102;18.034;2022-12-04T19:46:03;1.40;99.90
20422;DHT22;10370;53.102;18.034;2022-12-04T19:51:25;1.50;99.90
20422;DHT22;10370;53.102;18.034;2022-12-04T19:56:49;1.50;99.90
20422;DHT22;10370;53.102;18.034;2022-12-04T20:02:11;1.40;99.90
20422;DHT22;10370;53.102;18.034;2022-12-04T20:07:33;1.40;99.90
20422;DHT22;10370;53.102;18.034;2022-12-04T20:12:54;1.50;99.90
20422;DHT22;10370;53.102;18.034;2022-12-04T20:18:15;1.50;99.90
20422;DHT22;10370;53.102;18.034;2022-12-04T20:23:38;1.50;99.90
20422;DHT22;10370;53.102;18.034;2022-12-04T20:29:00;1.50;99.90
20422;DHT22;10370;53.102;18.034;2022-12-04T20:34:21;1.50;99.90
20422;DHT22;10370;53.102;18.034;2022-12-04T20:39:42;1.40;99.90
20422;DHT22;10370;53.102;18.034;2022-12-04T20:45:03;1.50;99.90
20422;DHT22;10370;53.102;18.034;2022-12-04T20:50:25;1.50;99.90
20422;DHT22;10370;53.102;18.034;2022-12-04T20:55:55;1.50;99.90
20422;DHT22;10370;53.102;18.034;2022-12-04T21:01:23;1.50;99.90
20422;DHT22;10370;53.102;18.034;2022-12-04T21:06:48;1.50;99.90
20422;DHT22;10370;53.102;18.034;2022-12-04T21:12:17;1.50;99.90
20422;DHT22;10370;53.102;18.034;2022-12-04T21:18:02;1.50;99.90
20422;DHT22;10370;53.102;18.034;2022-12-04T21:23:23;1.40;99.90
20422;DHT22;10370;53.102;18.034;2022-12-04T21:28:44;1.40;99.90
20422;DHT22;10370;53.102;18.034;2022-12-04T21:34:08;1.40;99.90
20422;DHT22;10370;53.102;18.034;2022-12-04T21:39:30;1.50;99.90
20422;DHT22;10370;53.102;18.034;2022-12-04T21:44:51;1.40;99.90
20422;DHT22;10370;53.102;18.034;2022-12-04T21:50:12;1.40;99.90
20422;DHT22;10370;53.102;18.034;2022-12-04T21:55:33;1.50;99.90
20422;DHT22;10370;53.102;18.034;2022-12-04T22:00:57;1.50;99.90
20422;DHT22;10370;53.102;18.034;2022-12-04T22:06:23;1.40;99.90
20422;DHT22;10370;53.102;18.034;2022-12-04T22:11:44;1.50;99.90
20422;DHT22;10370;53.102;18.034;2022-12-04T22:17:05;1.50;99.90
20422;DHT22;10370;53.102;18.034;2022-12-04T22:22:26;1.50;99.90
20422;DHT22;10370;53.102;18.034;2022-12-04T22:27:48;1.50;99.90
20422;DHT22;10370;53.102;18.034;2022-12-04T22:33:09;1.50;99.90
20422;DHT22;10370;53.102;18.034;2022-12-04T22:38:30;1.50;99.90
20422;DHT22;10370;53.102;18.034;2022-12-04T22:43:51;1.50;99.90
20422;DHT22;10370;53.102;18.034;2022-12-04T22:49:12;1.40;99.90
20422;DHT22;10370;53.102;18.034;2022-12-04T22:54:34;1.40;99.90
20422;DHT22;10370;53.102;18.034;2022-12-04T22:59:58;1.40;99.90
20422;DHT22;10370;53.102;18.034;2022-12-04T23:05:22;1.40;99.90
20422;DHT22;10370;53.102;18.034;2022-12-04T23:10:43;1.40;99.90
20422;DHT22;10370;53.102;18.034;2022-12-04T23:16:05;1.40;99.90
20422;DHT22;10370;53.102;18.034;2022-12-04T23:21:32;1.40;99.90
20422;DHT22;10370;53.102;18.034;2022-12-04T23:26:53;1.40;99.90
20422;DHT22;10370;53.102;18.034;2022-12-04T23:32:14;1.40;99.90
20422;DHT22;10370;53.102;18.034;2022-12-04T23:37:35;1.40;99.90
20422;DHT22;10370;53.102;18.034;2022-12-04T23:42:59;1.40;99.90
20422;DHT22;10370;53.102;18.034;2022-12-04T23:48:20;1.40;99.90
20422;DHT22;10370;53.102;18.034;2022-12-04T23:53:42;1.40;99.90
20422;DHT22;10370;53.102;18.034;2022-12-04T23:59:03;1.40;99.90
